createdAt,value
2017-03-10T00:00:53.247Z,1002.45
2017-03-10T00:01:53.276Z,1002.48
2017-03-10T00:02:53.304Z,1002.47
2017-03-10T00:03:53.334Z,1002.41
2017-03-10T00:04:53.358Z,1002.47
2017-03-10T00:05:53.387Z,1002.44
2017-03-10T00:06:53.415Z,1002.42
2017-03-10T00:07:53.440Z,1002.45
2017-03-10T00:08:53.469Z,1002.41
2017-03-10T00:09:53.497Z,1002.46
2017-03-10T00:10:53.526Z,1002.4
2017-03-10T00:11:53.552Z,1002.44
2017-03-10T00:12:53.580Z,1002.41
2017-03-10T00:13:53.609Z,1002.43
2017-03-10T00:14:53.634Z,1002.46
2017-03-10T00:15:53.663Z,1002.47
2017-03-10T00:16:53.687Z,1002.53
2017-03-10T00:17:53.712Z,1002.52
2017-03-10T00:18:53.745Z,1002.52
2017-03-10T00:19:53.770Z,1002.49
2017-03-10T00:20:53.799Z,1002.47
2017-03-10T00:21:53.826Z,1002.47
2017-03-10T00:22:53.856Z,1002.47
2017-03-10T00:23:53.880Z,1002.47
2017-03-10T00:24:53.913Z,1002.53
2017-03-10T00:25:53.938Z,1002.55
2017-03-10T00:26:53.962Z,1002.54
2017-03-10T00:27:53.991Z,1002.58
2017-03-10T00:28:54.021Z,1002.57
2017-03-10T00:29:54.045Z,1002.56
2017-03-10T00:30:54.074Z,1002.56
2017-03-10T00:31:54.099Z,1002.56
2017-03-10T00:32:54.128Z,1002.54
2017-03-10T00:33:54.157Z,1002.56
2017-03-10T00:34:54.181Z,1002.58
2017-03-10T00:35:54.210Z,1002.54
2017-03-10T00:36:54.239Z,1002.56
2017-03-10T00:37:54.263Z,1002.58
2017-03-10T00:38:54.362Z,1002.57
2017-03-10T00:39:54.320Z,1002.56
2017-03-10T00:40:54.345Z,1002.57
2017-03-10T00:41:54.374Z,1002.59
2017-03-10T00:42:54.399Z,1002.59
2017-03-10T00:43:54.428Z,1002.59
2017-03-10T00:44:54.457Z,1002.61
2017-03-10T00:45:54.483Z,1002.62
2017-03-10T00:46:54.510Z,1002.64
2017-03-10T00:47:54.539Z,1002.65
2017-03-10T00:48:54.559Z,1002.68
2017-03-10T00:49:54.592Z,1002.7
2017-03-10T00:50:54.619Z,1002.69
2017-03-10T00:51:54.646Z,1002.71
2017-03-10T00:52:54.675Z,1002.67
2017-03-10T00:53:54.700Z,1002.68
2017-03-10T00:54:54.727Z,1002.69
2017-03-10T00:55:54.757Z,1002.69
2017-03-10T00:56:54.782Z,1002.72
2017-03-10T00:57:54.811Z,1002.71
2017-03-10T00:58:54.835Z,1002.65
2017-03-10T00:59:54.865Z,1002.65
2017-03-10T01:00:54.893Z,1002.67
2017-03-10T01:01:55.165Z,1002.65
2017-03-10T01:02:54.947Z,1002.57
2017-03-10T01:03:54.976Z,1002.57
2017-03-10T01:04:55.000Z,1002.58
2017-03-10T01:05:55.046Z,1002.6
2017-03-10T01:06:55.308Z,1002.6
2017-03-10T01:07:55.081Z,1002.58
2017-03-10T01:08:55.111Z,1002.62
2017-03-10T01:09:55.136Z,1002.66
2017-03-10T01:10:55.165Z,1002.67
2017-03-10T01:11:55.441Z,1002.62
2017-03-10T01:12:55.249Z,1002.64
2017-03-10T01:13:55.247Z,1002.62
2017-03-10T01:14:55.276Z,1002.66
2017-03-10T01:15:55.302Z,1002.67
2017-03-10T01:16:55.333Z,1002.66
2017-03-10T01:17:55.352Z,1002.65
2017-03-10T01:18:55.383Z,1002.62
2017-03-10T01:19:55.411Z,1002.61
2017-03-10T01:20:55.436Z,1002.64
2017-03-10T01:21:55.464Z,1002.62
2017-03-10T01:22:55.494Z,1002.59
2017-03-10T01:23:55.519Z,1002.54
2017-03-10T01:24:55.547Z,1002.55
2017-03-10T01:25:55.573Z,1002.57
2017-03-10T01:26:55.601Z,1002.59
2017-03-10T01:27:55.630Z,1002.59
2017-03-10T01:28:55.653Z,1002.55
2017-03-10T01:29:55.684Z,1002.53
2017-03-10T01:30:55.707Z,1002.58
2017-03-10T01:31:55.736Z,1002.59
2017-03-10T01:32:55.761Z,1002.58
2017-03-10T01:33:55.789Z,1002.56
2017-03-10T01:34:55.819Z,1002.53
2017-03-10T01:35:55.840Z,1002.51
2017-03-10T01:36:55.873Z,1002.53
2017-03-10T01:37:55.902Z,1002.57
2017-03-10T01:38:55.925Z,1002.57
2017-03-10T01:39:55.954Z,1002.57
2017-03-10T01:40:55.975Z,1002.57
2017-03-10T01:41:56.008Z,1002.56
2017-03-10T01:42:56.038Z,1002.53
2017-03-10T01:43:56.062Z,1002.55
2017-03-10T01:44:56.086Z,1002.56
2017-03-10T01:45:56.115Z,1002.55
2017-03-10T01:46:56.140Z,1002.56
2017-03-10T01:47:56.168Z,1002.53
2017-03-10T01:48:56.197Z,1002.54
2017-03-10T01:49:56.227Z,1002.52
2017-03-10T01:50:56.250Z,1002.55
2017-03-10T01:51:56.280Z,1002.57
2017-03-10T01:52:56.305Z,1002.54
2017-03-10T01:53:56.332Z,1002.53
2017-03-10T01:54:56.358Z,1002.54
2017-03-10T01:55:56.387Z,1002.51
2017-03-10T01:56:56.415Z,1002.61
2017-03-10T01:57:56.441Z,1002.54
2017-03-10T01:58:56.470Z,1002.53
2017-03-10T01:59:56.496Z,1002.54
2017-03-10T02:00:56.523Z,1002.48
2017-03-10T02:01:56.547Z,1002.49
2017-03-10T02:02:56.576Z,1002.51
2017-03-10T02:03:56.605Z,1002.55
2017-03-10T02:04:56.629Z,1002.55
2017-03-10T02:05:56.659Z,1002.57
2017-03-10T02:06:56.688Z,1002.64
2017-03-10T02:07:56.712Z,1002.64
2017-03-10T02:08:56.740Z,1002.68
2017-03-10T02:09:56.765Z,1002.68
2017-03-10T02:10:56.794Z,1002.7
2017-03-10T02:11:56.819Z,1002.67
2017-03-10T02:12:56.848Z,1002.62
2017-03-10T02:13:56.872Z,1002.63
2017-03-10T02:14:56.902Z,1002.6
2017-03-10T02:15:56.926Z,1002.64
2017-03-10T02:16:56.955Z,1002.64
2017-03-10T02:17:56.984Z,1002.63
2017-03-10T02:18:57.008Z,1002.63
2017-03-10T02:19:57.036Z,1002.64
2017-03-10T02:20:57.062Z,1002.62
2017-03-10T02:21:57.091Z,1002.67
2017-03-10T02:22:57.119Z,1002.68
2017-03-10T02:23:57.144Z,1002.7
2017-03-10T02:24:57.168Z,1002.66
2017-03-10T02:25:57.193Z,1002.63
2017-03-10T02:26:57.223Z,1002.64
2017-03-10T02:27:57.249Z,1002.66
2017-03-10T02:28:57.276Z,1002.67
2017-03-10T02:29:57.305Z,1002.67
2017-03-10T02:30:57.333Z,1002.69
2017-03-10T02:31:57.359Z,1002.71
2017-03-10T02:32:57.388Z,1002.78
2017-03-10T02:33:57.412Z,1002.76
2017-03-10T02:34:57.440Z,1002.78
2017-03-10T02:35:57.465Z,1002.81
2017-03-10T02:36:57.494Z,1002.81
2017-03-10T02:37:57.519Z,1002.84
2017-03-10T02:38:57.547Z,1002.9
2017-03-10T02:39:57.577Z,1002.92
2017-03-10T02:40:57.601Z,1002.93
2017-03-10T02:41:57.630Z,1002.95
2017-03-10T02:42:57.654Z,1002.99
2017-03-10T02:43:57.683Z,1002.99
2017-03-10T02:44:57.708Z,1002.96
2017-03-10T02:45:57.737Z,1002.97
2017-03-10T02:46:57.766Z,1002.92
2017-03-10T02:47:58.040Z,1003
2017-03-10T02:48:57.819Z,1002.97
2017-03-10T02:49:57.842Z,1003.02
2017-03-10T02:50:57.868Z,1003
2017-03-10T02:51:57.893Z,1002.99
2017-03-10T02:52:58.173Z,1002.97
2017-03-10T02:53:57.951Z,1002.97
2017-03-10T02:54:57.976Z,1002.93
2017-03-10T02:55:58.004Z,1002.95
2017-03-10T02:56:58.029Z,1002.92
2017-03-10T02:57:58.309Z,1002.99
2017-03-10T02:58:58.087Z,1002.98
2017-03-10T02:59:58.112Z,1003.01
2017-03-10T03:00:58.141Z,1003.01
2017-03-10T03:01:58.166Z,1003.04
2017-03-10T03:02:58.446Z,1003.1
2017-03-10T03:03:58.219Z,1003.1
2017-03-10T03:04:58.249Z,1003.15
2017-03-10T03:05:58.272Z,1003.18
2017-03-10T03:06:58.301Z,1003.17
2017-03-10T03:07:58.577Z,1003.19
2017-03-10T03:08:58.358Z,1003.23
2017-03-10T03:09:58.379Z,1003.22
2017-03-10T03:10:58.409Z,1003.22
2017-03-10T03:11:58.433Z,1003.22
2017-03-10T03:12:58.458Z,1003.2
2017-03-10T03:13:58.487Z,1003.18
2017-03-10T03:14:58.516Z,1003.21
2017-03-10T03:15:58.540Z,1003.19
2017-03-10T03:16:58.583Z,1003.18
2017-03-10T03:17:58.597Z,1003.22
2017-03-10T03:18:58.618Z,1003.23
2017-03-10T03:19:58.646Z,1003.25
2017-03-10T03:20:58.675Z,1003.24
2017-03-10T03:21:58.704Z,1003.31
2017-03-10T03:22:58.728Z,1003.32
2017-03-10T03:23:58.754Z,1003.32
2017-03-10T03:24:58.782Z,1003.32
2017-03-10T03:25:58.808Z,1003.37
2017-03-10T03:26:58.837Z,1003.34
2017-03-10T03:27:58.861Z,1003.37
2017-03-10T03:28:58.889Z,1003.35
2017-03-10T03:29:58.915Z,1003.39
2017-03-10T03:30:58.943Z,1003.39
2017-03-10T03:31:58.971Z,1003.43
2017-03-10T03:32:58.997Z,1003.43
2017-03-10T03:33:59.018Z,1003.48
2017-03-10T03:34:59.050Z,1003.46
2017-03-10T03:35:59.079Z,1003.5
2017-03-10T03:36:59.104Z,1003.49
2017-03-10T03:37:59.127Z,1003.5
2017-03-10T03:38:59.158Z,1003.51
2017-03-10T03:39:59.181Z,1003.49
2017-03-10T03:40:59.210Z,1003.5
2017-03-10T03:41:59.234Z,1003.48
2017-03-10T03:42:59.262Z,1003.51
2017-03-10T03:43:59.292Z,1003.49
2017-03-10T03:44:59.318Z,1003.52
2017-03-10T03:45:59.342Z,1003.48
2017-03-10T03:46:59.402Z,1003.54
2017-03-10T03:47:59.396Z,1003.52
2017-03-10T03:48:59.424Z,1003.54
2017-03-10T03:49:59.449Z,1003.53
2017-03-10T03:50:59.477Z,1003.56
2017-03-10T03:51:59.502Z,1003.56
2017-03-10T03:52:59.531Z,1003.53
2017-03-10T03:53:59.555Z,1003.59
2017-03-10T03:54:59.581Z,1003.6
2017-03-10T03:55:59.609Z,1003.59
2017-03-10T03:56:59.638Z,1003.63
2017-03-10T03:57:59.662Z,1003.63
2017-03-10T03:58:59.692Z,1003.68
2017-03-10T03:59:59.715Z,1003.64
2017-03-10T04:00:59.746Z,1003.67
2017-03-10T04:01:59.770Z,1003.68
2017-03-10T04:02:59.794Z,1003.61
2017-03-10T04:03:59.822Z,1003.62
2017-03-10T04:04:59.852Z,1003.6
2017-03-10T04:05:59.874Z,1003.6
2017-03-10T04:06:59.901Z,1003.57
2017-03-10T04:07:59.930Z,1003.57
2017-03-10T04:08:59.959Z,1003.55
2017-03-10T04:09:59.977Z,1003.6
2017-03-10T04:11:00.010Z,1003.6
2017-03-10T04:12:00.037Z,1003.61
2017-03-10T04:13:00.062Z,1003.62
2017-03-10T04:14:00.091Z,1003.64
2017-03-10T04:15:00.115Z,1003.73
2017-03-10T04:16:00.140Z,1003.71
2017-03-10T04:17:00.168Z,1003.78
2017-03-10T04:18:00.199Z,1003.74
2017-03-10T04:19:00.222Z,1003.73
2017-03-10T04:20:00.251Z,1003.76
2017-03-10T04:21:00.275Z,1003.78
2017-03-10T04:22:00.300Z,1003.81
2017-03-10T04:23:00.333Z,1003.79
2017-03-10T04:24:00.358Z,1003.78
2017-03-10T04:25:00.382Z,1003.79
2017-03-10T04:26:00.411Z,1003.78
2017-03-10T04:27:00.431Z,1003.76
2017-03-10T04:28:00.460Z,1003.79
2017-03-10T04:29:00.489Z,1003.81
2017-03-10T04:30:00.515Z,1003.77
2017-03-10T04:31:00.542Z,1003.84
2017-03-10T04:32:00.568Z,1003.79
2017-03-10T04:33:00.597Z,1003.82
2017-03-10T04:34:00.621Z,1003.84
2017-03-10T04:35:00.649Z,1003.81
2017-03-10T04:36:00.674Z,1003.83
2017-03-10T04:37:00.703Z,1003.79
2017-03-10T04:38:00.728Z,1003.82
2017-03-10T04:39:00.752Z,1003.79
2017-03-10T04:40:00.781Z,1003.8
2017-03-10T04:41:00.802Z,1003.81
2017-03-10T04:42:00.835Z,1003.81
2017-03-10T04:43:00.860Z,1003.85
2017-03-10T04:44:00.889Z,1003.88
2017-03-10T04:45:00.913Z,1003.89
2017-03-10T04:46:00.940Z,1003.88
2017-03-10T04:47:00.967Z,1003.89
2017-03-10T04:48:00.996Z,1003.91
2017-03-10T04:49:01.021Z,1003.91
2017-03-10T04:50:01.045Z,1003.92
2017-03-10T04:51:01.075Z,1003.92
2017-03-10T04:52:01.099Z,1003.94
2017-03-10T04:53:01.128Z,1003.92
2017-03-10T04:54:01.153Z,1003.92
2017-03-10T04:55:01.181Z,1003.89
2017-03-10T04:56:01.206Z,1003.94
2017-03-10T04:57:01.235Z,1003.94
2017-03-10T04:58:01.256Z,1003.96
2017-03-10T04:59:01.535Z,1003.95
2017-03-10T05:00:01.313Z,1003.96
2017-03-10T05:01:01.338Z,1003.96
2017-03-10T05:02:01.367Z,1003.98
2017-03-10T05:03:01.388Z,1003.99
2017-03-10T05:04:01.420Z,1003.98
2017-03-10T05:05:01.450Z,1003.96
2017-03-10T05:06:01.469Z,1003.94
2017-03-10T05:07:01.499Z,1003.92
2017-03-10T05:08:01.528Z,1003.9
2017-03-10T05:09:01.553Z,1003.91
2017-03-10T05:10:01.576Z,1003.92
2017-03-10T05:11:01.606Z,1003.95
2017-03-10T05:12:01.631Z,1003.96
2017-03-10T05:13:01.652Z,1003.98
2017-03-10T05:14:01.680Z,1003.99
2017-03-10T05:15:01.714Z,1003.96
2017-03-10T05:16:01.738Z,1003.97
2017-03-10T05:17:01.762Z,1003.95
2017-03-10T05:18:01.792Z,1003.97
2017-03-10T05:19:01.817Z,1003.95
2017-03-10T05:20:01.841Z,1003.99
2017-03-10T05:21:01.870Z,1003.97
2017-03-10T05:22:01.894Z,1003.98
2017-03-10T05:23:01.924Z,1004.01
2017-03-10T05:24:01.948Z,1004
2017-03-10T05:25:01.986Z,1004.04
2017-03-10T05:26:02.002Z,1004.04
2017-03-10T05:27:02.024Z,1004.03
2017-03-10T05:28:02.055Z,1004.06
2017-03-10T05:29:02.080Z,1004.09
2017-03-10T05:30:02.103Z,1004.06
2017-03-10T05:31:02.134Z,1004.11
2017-03-10T05:32:02.158Z,1004.07
2017-03-10T05:33:02.189Z,1004.06
2017-03-10T05:34:02.217Z,1004.1
2017-03-10T05:35:02.240Z,1004.12
2017-03-10T05:36:02.266Z,1004.16
2017-03-10T05:37:02.294Z,1004.15
2017-03-10T05:38:02.319Z,1004.17
2017-03-10T05:39:02.344Z,1004.15
2017-03-10T05:40:02.373Z,1004.16
2017-03-10T05:41:02.398Z,1004.19
2017-03-10T05:42:02.428Z,1004.18
2017-03-10T05:43:02.451Z,1004.16
2017-03-10T05:44:02.480Z,1004.18
2017-03-10T05:45:02.504Z,1004.21
2017-03-10T05:46:02.530Z,1004.23
2017-03-10T05:47:02.559Z,1004.24
2017-03-10T05:48:02.584Z,1004.24
2017-03-10T05:49:02.608Z,1004.29
2017-03-10T05:50:02.640Z,1004.28
2017-03-10T05:51:02.662Z,1004.3
2017-03-10T05:52:02.690Z,1004.36
2017-03-10T05:53:02.714Z,1004.33
2017-03-10T05:54:02.745Z,1004.33
2017-03-10T05:55:02.768Z,1004.34
2017-03-10T05:56:02.792Z,1004.35
2017-03-10T05:57:02.822Z,1004.32
2017-03-10T05:58:02.851Z,1004.35
2017-03-10T05:59:02.876Z,1004.33
2017-03-10T06:00:02.901Z,1004.33
2017-03-10T06:01:02.921Z,1004.31
2017-03-10T06:02:02.955Z,1004.4
2017-03-10T06:03:02.988Z,1004.39
2017-03-10T06:04:03.008Z,1004.36
2017-03-10T06:05:03.037Z,1004.39
2017-03-10T06:06:03.062Z,1004.37
2017-03-10T06:07:03.082Z,1004.39
2017-03-10T06:08:03.115Z,1004.41
2017-03-10T06:09:03.168Z,1004.42
2017-03-10T06:10:03.169Z,1004.46
2017-03-10T06:11:03.194Z,1004.43
2017-03-10T06:12:03.223Z,1004.46
2017-03-10T06:13:03.247Z,1004.49
2017-03-10T06:14:03.275Z,1004.46
2017-03-10T06:15:03.549Z,1004.48
2017-03-10T06:16:03.329Z,1004.47
2017-03-10T06:17:03.354Z,1004.48
2017-03-10T06:18:03.379Z,1004.48
2017-03-10T06:19:03.408Z,1004.47
2017-03-10T06:20:03.433Z,1004.5
2017-03-10T06:21:03.462Z,1004.56
2017-03-10T06:22:03.486Z,1004.52
2017-03-10T06:23:03.519Z,1004.53
2017-03-10T06:24:03.535Z,1004.58
2017-03-10T06:25:03.564Z,1004.58
2017-03-10T06:26:03.589Z,1004.55
2017-03-10T06:27:03.617Z,1004.57
2017-03-10T06:28:03.647Z,1004.58
2017-03-10T06:29:03.671Z,1004.63
2017-03-10T06:30:03.699Z,1004.61
2017-03-10T06:31:03.726Z,1004.63
2017-03-10T06:32:03.756Z,1004.66
2017-03-10T06:33:03.779Z,1004.67
2017-03-10T06:34:03.809Z,1004.71
2017-03-10T06:35:03.833Z,1004.75
2017-03-10T06:36:03.857Z,1004.76
2017-03-10T06:37:03.884Z,1004.8
2017-03-10T06:38:03.910Z,1004.84
2017-03-10T06:39:03.940Z,1004.83
2017-03-10T06:40:03.964Z,1004.85
2017-03-10T06:41:03.994Z,1004.89
2017-03-10T06:42:04.018Z,1004.85
2017-03-10T06:43:04.043Z,1004.85
2017-03-10T06:44:04.067Z,1004.85
2017-03-10T06:45:04.100Z,1004.88
2017-03-10T06:46:04.125Z,1004.89
2017-03-10T06:47:04.149Z,1004.93
2017-03-10T06:48:04.180Z,1004.9
2017-03-10T06:49:04.208Z,1004.92
2017-03-10T06:50:04.232Z,1004.92
2017-03-10T06:51:04.289Z,1004.9
2017-03-10T06:52:04.287Z,1004.88
2017-03-10T06:53:04.310Z,1004.9
2017-03-10T06:54:04.340Z,1004.86
2017-03-10T06:55:04.363Z,1004.86
2017-03-10T06:56:04.393Z,1004.91
2017-03-10T06:57:04.418Z,1004.92
2017-03-10T06:58:04.445Z,1004.88
2017-03-10T06:59:04.471Z,1004.91
2017-03-10T07:00:04.501Z,1004.87
2017-03-10T07:01:04.525Z,1004.85
2017-03-10T07:02:04.554Z,1004.86
2017-03-10T07:03:04.579Z,1004.83
2017-03-10T07:04:04.610Z,1004.83
2017-03-10T07:05:04.628Z,1004.82
2017-03-10T07:06:04.658Z,1004.84
2017-03-10T07:07:04.686Z,1004.8
2017-03-10T07:08:04.714Z,1004.83
2017-03-10T07:09:04.739Z,1004.85
2017-03-10T07:10:04.763Z,1004.9
2017-03-10T07:11:04.793Z,1005.02
2017-03-10T07:12:04.822Z,1005.1
2017-03-10T07:13:04.847Z,1005.13
2017-03-10T07:14:04.871Z,1005.15
2017-03-10T07:15:04.905Z,1005.2
2017-03-10T07:16:04.928Z,1005.2
2017-03-10T07:17:04.959Z,1005.23
2017-03-10T07:18:04.982Z,1005.27
2017-03-10T07:19:05.006Z,1005.32
2017-03-10T07:20:05.035Z,1005.31
2017-03-10T07:21:05.061Z,1005.37
2017-03-10T07:22:05.089Z,1005.35
2017-03-10T07:23:05.117Z,1005.39
2017-03-10T07:24:05.147Z,1005.39
2017-03-10T07:25:05.171Z,1005.39
2017-03-10T07:26:05.200Z,1005.45
2017-03-10T07:27:05.229Z,1005.46
2017-03-10T07:28:05.257Z,1005.45
2017-03-10T07:29:05.282Z,1005.42
2017-03-10T07:30:05.310Z,1005.4
2017-03-10T07:31:05.344Z,1005.34
2017-03-10T07:32:05.372Z,1005.32
2017-03-10T07:33:05.404Z,1005.28
2017-03-10T07:34:05.429Z,1005.28
2017-03-10T07:35:05.455Z,1005.24
2017-03-10T07:36:05.487Z,1005.21
2017-03-10T07:37:05.517Z,1005.22
2017-03-10T07:38:05.541Z,1005.29
2017-03-10T07:39:05.574Z,1005.25
2017-03-10T07:40:05.603Z,1005.31
2017-03-10T07:41:05.632Z,1005.31
2017-03-10T07:42:05.661Z,1005.28
2017-03-10T07:43:05.689Z,1005.33
2017-03-10T07:44:05.718Z,1005.29
2017-03-10T07:45:05.747Z,1005.36
2017-03-10T07:46:06.023Z,1005.36
2017-03-10T07:47:05.804Z,1005.4
2017-03-10T07:48:05.833Z,1005.37
2017-03-10T07:49:05.863Z,1005.35
2017-03-10T07:50:05.885Z,1005.36
2017-03-10T07:51:06.167Z,1005.36
2017-03-10T07:52:05.978Z,1005.38
2017-03-10T07:53:05.973Z,1005.39
2017-03-10T07:54:05.998Z,1005.41
2017-03-10T07:55:06.028Z,1005.39
2017-03-10T07:56:06.311Z,1005.45
2017-03-10T07:57:06.088Z,1005.42
2017-03-10T07:58:06.117Z,1005.46
2017-03-10T07:59:06.142Z,1005.48
2017-03-10T08:00:06.174Z,1005.47
2017-03-10T08:01:06.454Z,1005.49
2017-03-10T08:02:06.232Z,1005.47
2017-03-10T08:03:06.260Z,1005.5
2017-03-10T08:04:06.286Z,1005.5
2017-03-10T08:05:06.314Z,1005.53
2017-03-10T08:06:06.595Z,1005.55
2017-03-10T08:07:06.372Z,1005.55
2017-03-10T08:08:06.401Z,1005.53
2017-03-10T08:09:06.429Z,1005.55
2017-03-10T08:10:06.460Z,1005.56
2017-03-10T08:11:06.483Z,1005.57
2017-03-10T08:12:06.512Z,1005.54
2017-03-10T08:13:06.541Z,1005.58
2017-03-10T08:14:06.568Z,1005.58
2017-03-10T08:15:06.598Z,1005.58
2017-03-10T08:16:06.628Z,1005.59
2017-03-10T08:17:06.651Z,1005.59
2017-03-10T08:18:06.676Z,1005.53
2017-03-10T08:19:06.709Z,1005.55
2017-03-10T08:20:06.738Z,1005.53
2017-03-10T08:21:06.758Z,1005.53
2017-03-10T08:22:06.791Z,1005.53
2017-03-10T08:23:06.820Z,1005.52
2017-03-10T08:24:06.848Z,1005.54
2017-03-10T08:25:06.920Z,1005.53
2017-03-10T08:26:06.902Z,1005.53
2017-03-10T08:27:06.931Z,1005.56
2017-03-10T08:28:06.955Z,1005.53
2017-03-10T08:29:06.985Z,1005.52
2017-03-10T08:30:07.013Z,1005.57
2017-03-10T08:31:07.042Z,1005.56
2017-03-10T08:32:07.066Z,1005.58
2017-03-10T08:33:07.094Z,1005.56
2017-03-10T08:34:07.119Z,1005.58
2017-03-10T08:35:07.149Z,1005.57
2017-03-10T08:36:07.177Z,1005.61
2017-03-10T08:37:07.202Z,1005.63
2017-03-10T08:38:07.235Z,1005.62
2017-03-10T08:39:07.255Z,1005.64
2017-03-10T08:40:07.284Z,1005.6
2017-03-10T08:41:07.311Z,1005.59
2017-03-10T08:42:07.338Z,1005.6
2017-03-10T08:43:07.366Z,1005.64
2017-03-10T08:44:07.393Z,1005.69
2017-03-10T08:45:07.420Z,1005.71
2017-03-10T08:46:07.448Z,1005.71
2017-03-10T08:47:07.480Z,1005.74
2017-03-10T08:48:07.503Z,1005.76
2017-03-10T08:49:07.526Z,1005.74
2017-03-10T08:50:07.555Z,1005.71
2017-03-10T08:51:07.584Z,1005.7
2017-03-10T08:52:07.609Z,1005.68
2017-03-10T08:53:07.638Z,1005.67
2017-03-10T08:54:07.667Z,1005.66
2017-03-10T08:55:07.691Z,1005.69
2017-03-10T08:56:07.721Z,1005.63
2017-03-10T08:57:07.744Z,1005.66
2017-03-10T08:58:07.774Z,1005.69
2017-03-10T08:59:07.798Z,1005.64
2017-03-10T09:00:07.831Z,1005.63
2017-03-10T09:01:07.855Z,1005.59
2017-03-10T09:02:07.907Z,1005.51
2017-03-10T09:03:07.913Z,1005.49
2017-03-10T09:04:07.941Z,1005.51
2017-03-10T09:05:07.971Z,1005.49
2017-03-10T09:06:08.015Z,1005.49
2017-03-10T09:07:08.028Z,1005.48
2017-03-10T09:08:08.048Z,1005.5
2017-03-10T09:09:08.074Z,1005.49
2017-03-10T09:10:08.135Z,1005.48
2017-03-10T09:11:08.131Z,1005.43
2017-03-10T09:12:08.163Z,1005.45
2017-03-10T09:13:08.189Z,1005.49
2017-03-10T09:14:08.236Z,1005.48
2017-03-10T09:15:08.250Z,1005.44
2017-03-10T09:16:08.292Z,1005.43
2017-03-10T09:17:08.300Z,1005.4
2017-03-10T09:18:08.352Z,1005.39
2017-03-10T09:19:08.357Z,1005.42
2017-03-10T09:20:08.408Z,1005.38
2017-03-10T09:21:08.411Z,1005.39
2017-03-10T09:22:08.440Z,1005.39
2017-03-10T09:23:08.469Z,1005.41
2017-03-10T09:24:08.516Z,1005.39
2017-03-10T09:25:08.522Z,1005.42
2017-03-10T09:26:08.563Z,1005.4
2017-03-10T09:27:08.580Z,1005.42
2017-03-10T09:28:08.627Z,1005.42
2017-03-10T09:29:08.637Z,1005.43
2017-03-10T09:30:08.662Z,1005.43
2017-03-10T09:31:08.693Z,1005.42
2017-03-10T09:32:08.971Z,1005.41
2017-03-10T09:33:08.748Z,1005.37
2017-03-10T09:34:08.773Z,1005.38
2017-03-10T09:35:08.801Z,1005.41
2017-03-10T09:36:08.830Z,1005.4
2017-03-10T09:37:09.107Z,1005.39
2017-03-10T09:38:08.892Z,1005.41
2017-03-10T09:39:08.913Z,1005.41
2017-03-10T09:40:08.943Z,1005.43
2017-03-10T09:41:08.970Z,1005.45
2017-03-10T09:42:09.250Z,1005.42
2017-03-10T09:43:09.024Z,1005.46
2017-03-10T09:44:09.048Z,1005.43
2017-03-10T09:45:09.082Z,1005.48
2017-03-10T09:46:09.107Z,1005.47
2017-03-10T09:47:09.386Z,1005.49
2017-03-10T09:48:09.163Z,1005.48
2017-03-10T09:49:09.192Z,1005.52
2017-03-10T09:50:09.218Z,1005.52
2017-03-10T09:51:09.274Z,1005.53
2017-03-10T09:52:09.522Z,1005.48
2017-03-10T09:53:09.300Z,1005.56
2017-03-10T09:54:09.328Z,1005.52
2017-03-10T09:55:09.356Z,1005.56
2017-03-10T09:56:09.385Z,1005.53
2017-03-10T09:57:09.666Z,1005.51
2017-03-10T09:58:09.440Z,1005.51
2017-03-10T09:59:09.469Z,1005.51
2017-03-10T10:00:09.495Z,1005.45
2017-03-10T10:01:09.524Z,1005.47
2017-03-10T10:02:09.551Z,1005.46
2017-03-10T10:03:09.577Z,1005.47
2017-03-10T10:04:09.606Z,1005.41
2017-03-10T10:05:09.636Z,1005.42
2017-03-10T10:06:09.661Z,1005.4
2017-03-10T10:07:09.688Z,1005.49
2017-03-10T10:08:09.719Z,1005.45
2017-03-10T10:09:09.747Z,1005.45
2017-03-10T10:10:09.773Z,1005.41
2017-03-10T10:11:09.801Z,1005.45
2017-03-10T10:12:09.829Z,1005.45
2017-03-10T10:13:09.858Z,1005.42
2017-03-10T10:14:09.886Z,1005.39
2017-03-10T10:15:09.911Z,1005.38
2017-03-10T10:16:09.940Z,1005.42
2017-03-10T10:17:09.971Z,1005.34
2017-03-10T10:18:09.998Z,1005.29
2017-03-10T10:19:10.025Z,1005.31
2017-03-10T10:20:10.051Z,1005.32
2017-03-10T10:21:10.080Z,1005.28
2017-03-10T10:22:10.108Z,1005.23
2017-03-10T10:23:10.134Z,1005.23
2017-03-10T10:24:10.163Z,1005.24
2017-03-10T10:25:10.192Z,1005.25
2017-03-10T10:26:10.220Z,1005.24
2017-03-10T10:27:10.247Z,1005.19
2017-03-10T10:28:10.273Z,1005.24
2017-03-10T10:29:10.305Z,1005.18
2017-03-10T10:30:10.331Z,1005.21
2017-03-10T10:31:10.360Z,1005.19
2017-03-10T10:32:10.388Z,1005.17
2017-03-10T10:33:10.417Z,1005.18
2017-03-10T10:34:10.442Z,1005.17
2017-03-10T10:35:10.470Z,1005.19
2017-03-10T10:36:10.499Z,1005.16
2017-03-10T10:37:10.529Z,1005.18
2017-03-10T10:38:10.556Z,1005.17
2017-03-10T10:39:10.586Z,1005.16
2017-03-10T10:40:10.615Z,1005.2
2017-03-10T10:41:10.636Z,1005.13
2017-03-10T10:42:10.668Z,1005.14
2017-03-10T10:43:10.693Z,1005.11
2017-03-10T10:44:10.726Z,1005.11
2017-03-10T10:45:10.755Z,1005.1
2017-03-10T10:46:10.784Z,1005.11
2017-03-10T10:47:10.812Z,1005.12
2017-03-10T10:48:10.832Z,1005.13
2017-03-10T10:49:10.865Z,1005.13
2017-03-10T10:50:10.893Z,1005.07
2017-03-10T10:51:10.927Z,1005.11
2017-03-10T10:52:10.951Z,1005.07
2017-03-10T10:53:10.980Z,1005.08
2017-03-10T10:54:11.009Z,1005.12
2017-03-10T10:55:11.033Z,1005.1
2017-03-10T10:56:11.062Z,1005.1
2017-03-10T10:57:11.091Z,1005.16
2017-03-10T10:58:11.125Z,1005.12
2017-03-10T10:59:11.148Z,1005.15
2017-03-10T11:00:11.179Z,1005.17
2017-03-10T11:01:11.208Z,1005.12
2017-03-10T11:02:11.235Z,1005.16
2017-03-10T11:03:11.261Z,1005.14
2017-03-10T11:04:11.288Z,1005.17
2017-03-10T11:05:11.318Z,1005.16
2017-03-10T11:06:11.345Z,1005.16
2017-03-10T11:07:11.374Z,1005.16
2017-03-10T11:08:11.403Z,1005.16
2017-03-10T11:09:11.432Z,1005.16
2017-03-10T11:10:11.460Z,1005.18
2017-03-10T11:11:11.489Z,1005.18
2017-03-10T11:12:11.515Z,1005.14
2017-03-10T11:13:11.547Z,1005.17
2017-03-10T11:14:11.572Z,1005.15
2017-03-10T11:15:11.601Z,1005.12
2017-03-10T11:16:11.629Z,1005.14
2017-03-10T11:17:11.653Z,1005.1
2017-03-10T11:18:11.687Z,1005.11
2017-03-10T11:19:11.716Z,1005.08
2017-03-10T11:20:11.746Z,1005.12
2017-03-10T11:21:11.772Z,1005.13
2017-03-10T11:22:11.802Z,1005.1
2017-03-10T11:23:11.832Z,1005.08
2017-03-10T11:24:11.860Z,1005.07
2017-03-10T11:25:11.884Z,1005.08
2017-03-10T11:26:11.913Z,1005.1
2017-03-10T11:27:11.942Z,1005.09
2017-03-10T11:28:12.225Z,1005.13
2017-03-10T11:29:11.999Z,1005.13
2017-03-10T11:30:12.054Z,1005.13
2017-03-10T11:31:12.057Z,1005.12
2017-03-10T11:32:12.086Z,1005.14
2017-03-10T11:33:12.365Z,1005.13
2017-03-10T11:34:12.176Z,1005.11
2017-03-10T11:35:12.172Z,1005.11
2017-03-10T11:36:12.197Z,1005.08
2017-03-10T11:37:12.229Z,1005.11
2017-03-10T11:38:12.509Z,1005.09
2017-03-10T11:39:12.287Z,1005.08
2017-03-10T11:40:12.315Z,1005.1
2017-03-10T11:41:12.344Z,1005.1
2017-03-10T11:42:12.379Z,1005.11
2017-03-10T11:43:12.653Z,1005.12
2017-03-10T11:44:12.430Z,1005.12
2017-03-10T11:45:12.457Z,1005.1
2017-03-10T11:46:12.488Z,1005.03
2017-03-10T11:47:12.516Z,1005.06
2017-03-10T11:48:12.545Z,1005.04
2017-03-10T11:49:12.573Z,1005.03
2017-03-10T11:50:12.598Z,1005.03
2017-03-10T11:51:12.631Z,1005
2017-03-10T11:52:12.658Z,1004.97
2017-03-10T11:53:12.688Z,1005.01
2017-03-10T11:54:12.716Z,1004.97
2017-03-10T11:55:12.742Z,1004.97
2017-03-10T11:56:12.773Z,1004.98
2017-03-10T11:57:12.803Z,1004.99
2017-03-10T11:58:12.826Z,1004.98
2017-03-10T11:59:12.862Z,1005.04
2017-03-10T12:00:12.890Z,1005.06
2017-03-10T12:01:12.913Z,1005.13
2017-03-10T12:02:12.947Z,1005.15
2017-03-10T12:03:12.973Z,1005.14
2017-03-10T12:04:13.005Z,1005.18
2017-03-10T12:05:13.030Z,1005.1
2017-03-10T12:06:13.062Z,1005.07
2017-03-10T12:07:13.091Z,1005.06
2017-03-10T12:08:13.118Z,1005.11